Time;durP1;ratioP1;P1;durP2;ratioP2;P2;SDS_P1;SDS_P2;PMS_P1;PMS_P2;Temp;Humidity;BMP_temperature;BMP_pressure;BME280_temperature;BME280_humidity;BME280_pressure;Samples;Min_cycle;Max_cycle;Signal;HPM_P1;HPM_P2
2022/01/28 00:05:04;;;;;;;18.77;2.60;;;4.30;99.90;;;;;;6092803;23;20016;-87
2022/01/28 00:07:29;;;;;;;15.90;2.75;;;4.30;99.90;;;;;;6126044;23;20013;-87
2022/01/28 00:09:57;;;;;;;16.55;2.47;;;4.30;99.90;;;;;;6123645;23;20037;-86
2022/01/28 00:12:25;;;;;;;15.80;3.13;;;4.30;99.90;;;;;;6125107;23;20017;-87
2022/01/28 00:15:16;;;;;;;22.13;4.15;;;4.20;99.90;;;;;;6125526;23;20441;-87
2022/01/28 00:18:16;;;;;;;22.77;2.83;;;4.10;99.90;;;;;;6130607;23;20075;-87
2022/01/28 00:36:32;;;;;;;29.92;3.58;;;4.20;99.90;;;;;;6114754;23;20068;-86
2022/01/28 00:38:09;;;;;;;19.33;3.15;;;4.10;99.90;;;;;;6153306;23;20374;-86
2022/01/28 00:40:00;;;;;;;26.75;4.53;;;4.10;99.90;;;;;;6131033;23;20108;-86
2022/01/28 00:42:25;;;;;;;10.05;1.92;;;4.10;99.90;;;;;;6122481;23;20032;-86
2022/01/28 00:44:51;;;;;;;13.75;2.63;;;4.00;99.90;;;;;;6125559;23;20032;-86
2022/01/28 00:47:16;;;;;;;16.48;2.70;;;4.00;99.90;;;;;;6125166;23;20016;-86
2022/01/28 00:49:42;;;;;;;13.23;2.95;;;3.90;99.90;;;;;;6126156;23;20048;-87
2022/01/28 00:52:08;;;;;;;23.20;3.17;;;3.90;99.90;;;;;;6122557;23;20096;-86
2022/01/28 00:54:33;;;;;;;15.82;3.60;;;3.90;99.90;;;;;;6122723;23;20021;-86
2022/01/28 00:56:59;;;;;;;17.38;3.33;;;3.80;99.90;;;;;;6125262;23;20019;-86
2022/01/28 00:59:24;;;;;;;19.27;3.92;;;3.90;99.90;;;;;;6126348;23;20351;-87
2022/01/28 01:01:50;;;;;;;26.67;3.53;;;3.80;99.90;;;;;;6119903;23;20071;-86
2022/01/28 01:04:15;;;;;;;12.70;2.67;;;3.80;99.90;;;;;;6125220;23;20346;-86
2022/01/28 01:06:42;;;;;;;10.70;2.05;;;3.80;99.90;;;;;;6126043;23;20446;-87
2022/01/28 01:09:07;;;;;;;17.75;2.95;;;3.80;99.90;;;;;;6124331;23;20385;-86
2022/01/28 01:11:33;;;;;;;15.85;3.38;;;3.60;99.90;;;;;;6125067;23;20014;-86
2022/01/28 01:13:59;;;;;;;16.48;2.85;;;3.60;99.90;;;;;;6124888;23;20505;-86
2022/01/28 01:16:34;;;;;;;15.35;2.00;;;3.60;99.90;;;;;;6122973;23;20009;-86
2022/01/28 01:19:21;;;;;;;26.05;4.95;;;3.60;99.90;;;;;;6127180;23;20065;-86
2022/01/28 01:21:53;;;;;;;24.20;3.28;;;3.50;99.90;;;;;;6129139;23;20060;-86
2022/01/28 01:24:22;;;;;;;14.40;2.50;;;3.60;99.90;;;;;;6123424;23;20410;-87
2022/01/28 01:26:48;;;;;;;15.07;2.92;;;3.70;99.90;;;;;;6125371;23;20017;-86
2022/01/28 01:29:16;;;;;;;25.73;3.28;;;3.50;99.90;;;;;;6127456;23;20342;-86
2022/01/28 01:31:43;;;;;;;25.67;3.17;;;3.40;99.90;;;;;;6125700;23;20021;-85
2022/01/28 01:34:16;;;;;;;20.15;3.25;;;3.40;99.90;;;;;;6126533;23;20135;-87
2022/01/28 01:36:47;;;;;;;15.30;2.88;;;3.60;99.90;;;;;;6128705;23;20101;-86
2022/01/28 01:39:22;;;;;;;23.80;2.63;;;3.70;99.90;;;;;;6150071;23;20019;-87
2022/01/28 01:41:57;;;;;;;18.88;3.13;;;3.60;99.90;;;;;;6128118;23;20013;-86
2022/01/28 01:52:24;;;;;;;17.25;2.83;;;3.50;99.90;;;;;;6152770;23;20016;-84
2022/01/28 01:54:50;;;;;;;18.85;2.40;;;3.60;99.90;;;;;;6150756;23;20709;-85
2022/01/28 01:57:16;;;;;;;25.38;2.97;;;3.50;99.90;;;;;;6124731;23;20063;-85
2022/01/28 01:59:42;;;;;;;21.27;3.10;;;3.50;99.90;;;;;;6126914;23;20462;-85
2022/01/28 02:02:08;;;;;;;12.00;2.35;;;3.50;99.90;;;;;;6126025;23;20337;-85
2022/01/28 02:04:34;;;;;;;16.95;3.30;;;3.40;99.90;;;;;;6126430;23;20095;-86
2022/01/28 02:06:59;;;;;;;14.70;2.90;;;3.40;99.90;;;;;;6120388;23;20009;-85
2022/01/28 02:09:25;;;;;;;10.70;4.38;;;3.40;99.90;;;;;;6125993;23;20001;-85
2022/01/28 02:11:51;;;;;;;13.02;2.53;;;3.40;99.90;;;;;;6124670;23;20088;-85
2022/01/28 02:14:16;;;;;;;22.48;2.70;;;3.40;99.90;;;;;;6123438;23;20005;-85
2022/01/28 02:16:42;;;;;;;14.32;1.63;;;3.40;99.90;;;;;;6126183;23;20013;-85
2022/01/28 02:19:07;;;;;;;18.98;2.90;;;3.40;99.90;;;;;;6125366;23;20441;-85
2022/01/28 02:21:42;;;;;;;11.90;2.13;;;3.20;99.90;;;;;;6121983;23;20512;-85
2022/01/28 02:24:09;;;;;;;4.70;1.17;;;3.20;99.90;;;;;;6126892;23;20457;-85
2022/01/28 02:26:36;;;;;;;17.88;3.15;;;3.30;99.90;;;;;;6125711;23;20383;-85
2022/01/28 02:29:08;;;;;;;7.30;1.67;;;3.30;99.90;;;;;;6124037;23;20505;-85
2022/01/28 02:31:34;;;;;;;19.40;2.45;;;3.30;99.90;;;;;;6126743;23;20029;-85
2022/01/28 02:34:00;;;;;;;17.02;1.80;;;3.20;99.90;;;;;;6125547;23;20044;-85
2022/01/28 02:36:26;;;;;;;17.17;2.40;;;3.20;99.90;;;;;;6122663;23;20341;-85
2022/01/28 02:38:57;;;;;;;12.23;1.52;;;3.30;99.90;;;;;;6125698;23;20473;-85
2022/01/28 02:41:26;;;;;;;12.65;1.83;;;3.40;99.90;;;;;;6125221;23;20406;-85
2022/01/28 02:46:29;;;;;;;21.52;3.58;;;3.40;99.90;;;;;;6152251;23;20005;-85
2022/01/28 02:49:03;;;;;;;19.45;1.75;;;3.40;99.90;;;;;;6124889;23;20012;-85
2022/01/28 02:51:28;;;;;;;14.98;2.75;;;3.50;99.90;;;;;;6126770;23;20017;-85
2022/01/28 02:53:57;;;;;;;13.45;1.90;;;3.50;99.90;;;;;;6126535;23;20024;-85
2022/01/28 02:56:34;;;;;;;22.50;2.60;;;3.50;99.90;;;;;;6126724;23;20013;-85
2022/01/28 02:59:02;;;;;;;20.90;2.47;;;3.50;99.90;;;;;;6152672;23;20462;-86
2022/01/28 03:01:28;;;;;;;15.35;2.25;;;3.60;99.90;;;;;;6125982;23;20011;-86
2022/01/28 03:03:58;;;;;;;25.45;3.33;;;3.50;99.90;;;;;;6124814;23;20048;-85
2022/01/28 03:06:24;;;;;;;16.83;1.98;;;3.40;99.90;;;;;;6120872;23;20527;-86
2022/01/28 03:08:56;;;;;;;5.97;0.93;;;3.40;99.90;;;;;;6125627;23;20065;-85
2022/01/28 03:16:25;;;;;;;15.32;2.40;;;3.40;99.90;;;;;;6150401;23;20009;-85
2022/01/28 03:18:55;;;;;;;17.77;2.92;;;3.40;99.90;;;;;;6125019;23;20017;-85
2022/01/28 03:23:55;;;;;;;14.27;2.83;;;3.30;99.90;;;;;;6151670;23;20015;-85
2022/01/28 03:26:23;;;;;;;10.93;1.67;;;3.30;99.90;;;;;;6125423;23;20076;-85
2022/01/28 03:28:48;;;;;;;9.77;1.83;;;3.30;99.90;;;;;;6123597;23;20013;-85
2022/01/28 03:31:14;;;;;;;15.50;3.30;;;3.20;99.90;;;;;;6125807;23;20032;-85
2022/01/28 03:33:39;;;;;;;13.13;2.08;;;3.20;99.90;;;;;;6124040;23;20036;-85
2022/01/28 03:36:08;;;;;;;12.10;2.47;;;3.20;99.90;;;;;;6120822;23;20093;-85
2022/01/28 03:38:34;;;;;;;22.13;2.80;;;3.10;99.90;;;;;;6124400;23;20067;-85
2022/01/28 03:41:00;;;;;;;9.32;1.35;;;3.00;99.90;;;;;;6124943;23;20373;-85
2022/01/28 03:43:25;;;;;;;5.88;1.23;;;3.10;99.90;;;;;;6124552;23;20148;-85
2022/01/28 03:45:51;;;;;;;21.58;3.42;;;3.10;99.90;;;;;;6125186;23;20585;-85
2022/01/28 03:48:16;;;;;;;15.52;2.83;;;3.00;99.90;;;;;;6150431;23;20013;-86
2022/01/28 03:50:42;;;;;;;21.63;2.67;;;3.10;99.90;;;;;;6123239;23;20061;-85
2022/01/28 03:53:08;;;;;;;13.50;2.25;;;3.10;99.90;;;;;;6125340;23;20012;-85
2022/01/28 03:55:34;;;;;;;15.95;2.22;;;3.10;99.90;;;;;;6125891;23;20013;-86
2022/01/28 03:57:59;;;;;;;20.15;2.55;;;3.00;99.90;;;;;;6124535;23;20009;-85
2022/01/28 04:00:29;;;;;;;22.35;2.90;;;2.90;99.90;;;;;;6124976;23;20020;-85
2022/01/28 04:03:04;;;;;;;10.05;2.20;;;3.10;99.90;;;;;;6125961;23;20450;-86
2022/01/28 04:13:30;;;;;;;18.25;3.20;;;3.20;99.90;;;;;;6153535;23;20020;-85
2022/01/28 04:18:24;;;;;;;20.60;3.28;;;3.30;99.90;;;;;;6150035;23;20013;-86
2022/01/28 04:20:49;;;;;;;10.55;1.90;;;3.30;99.90;;;;;;6125117;23;20513;-86
2022/01/28 04:23:15;;;;;;;5.03;1.35;;;3.30;99.90;;;;;;6125022;23;20442;-85
2022/01/28 04:25:40;;;;;;;9.38;1.30;;;3.30;99.90;;;;;;6125013;23;20013;-86
2022/01/28 04:28:06;;;;;;;17.00;2.35;;;3.30;99.90;;;;;;6123711;23;20001;-85
2022/01/28 04:30:31;;;;;;;14.00;2.53;;;3.40;99.90;;;;;;6123090;23;20021;-86
2022/01/28 04:32:57;;;;;;;22.17;2.00;;;3.40;99.90;;;;;;6120606;23;20013;-86
2022/01/28 04:35:23;;;;;;;14.07;2.47;;;3.40;99.90;;;;;;6148695;23;20319;-86
2022/01/28 04:37:58;;;;;;;21.63;2.40;;;3.50;99.90;;;;;;6125855;23;20020;-86
2022/01/28 04:40:28;;;;;;;14.80;3.17;;;3.40;99.90;;;;;;6149854;23;20024;-85
2022/01/28 04:43:14;;;;;;;20.48;2.78;;;3.40;99.90;;;;;;6150127;23;20009;-85
2022/01/28 04:45:52;;;;;;;19.20;2.30;;;3.40;99.90;;;;;;6153563;23;20021;-85
2022/01/28 04:48:31;;;;;;;17.05;2.17;;;3.40;99.90;;;;;;6152525;23;20032;-86
2022/01/28 04:51:12;;;;;;;19.70;2.70;;;3.50;99.90;;;;;;6126509;23;20338;-85
2022/01/28 04:56:33;;;;;;;20.50;2.92;;;3.50;99.90;;;;;;6153037;23;20092;-86
2022/01/28 04:59:20;;;;;;;10.57;0.85;;;3.50;99.90;;;;;;6129077;23;20032;-85
2022/01/28 05:02:14;;;;;;;17.08;2.60;;;3.50;99.90;;;;;;6129073;23;20334;-86
2022/01/28 05:26:25;;;;;;;4.88;0.93;;;3.30;99.90;;;;;;6155786;23;20031;-85
2022/01/28 05:28:51;;;;;;;14.20;2.10;;;3.30;99.90;;;;;;6131473;23;20009;-86
2022/01/28 05:31:17;;;;;;;12.07;2.15;;;3.40;99.90;;;;;;6125369;23;20016;-87
2022/01/28 05:33:43;;;;;;;8.60;1.75;;;3.30;99.90;;;;;;6149516;23;20091;-87
2022/01/28 05:36:09;;;;;;;16.23;2.20;;;3.40;99.90;;;;;;6126490;23;20380;-87
2022/01/28 05:38:34;;;;;;;12.48;1.85;;;3.40;99.90;;;;;;6126611;23;20120;-87
2022/01/28 05:41:00;;;;;;;21.75;3.15;;;3.40;99.90;;;;;;6126515;23;20735;-86
2022/01/28 05:43:26;;;;;;;9.35;1.70;;;3.40;99.90;;;;;;6123188;23;20036;-86
2022/01/28 05:45:54;;;;;;;13.07;2.42;;;3.30;99.90;;;;;;6152757;23;20016;-86
2022/01/28 05:48:20;;;;;;;13.32;1.42;;;3.30;99.90;;;;;;6125740;23;20083;-86
2022/01/28 05:50:46;;;;;;;19.83;2.42;;;3.30;99.90;;;;;;6125440;23;20086;-87
2022/01/28 05:53:11;;;;;;;12.45;2.28;;;3.30;99.90;;;;;;6125987;23;20050;-86
2022/01/28 05:55:37;;;;;;;15.05;2.30;;;3.30;99.90;;;;;;6125545;23;20036;-86
2022/01/28 05:58:02;;;;;;;21.83;2.10;;;3.30;99.90;;;;;;6151474;23;20005;-86
2022/01/28 06:00:28;;;;;;;11.27;1.60;;;3.40;99.90;;;;;;6125239;23;20476;-86
2022/01/28 06:02:53;;;;;;;20.30;2.65;;;3.40;99.90;;;;;;6125288;23;20445;-86
2022/01/28 06:05:19;;;;;;;13.02;2.58;;;3.40;99.90;;;;;;6127123;23;20032;-85
2022/01/28 06:07:44;;;;;;;7.78;1.88;;;3.40;99.90;;;;;;6125622;23;20041;-86
2022/01/28 06:10:11;;;;;;;15.23;1.95;;;3.50;99.90;;;;;;6125277;23;20068;-86
2022/01/28 06:12:44;;;;;;;10.52;1.58;;;3.40;99.90;;;;;;6125637;23;20021;-86
2022/01/28 06:15:10;;;;;;;17.70;1.58;;;3.40;99.90;;;;;;6125494;23;20084;-86
2022/01/28 06:17:35;;;;;;;18.92;2.47;;;3.40;99.90;;;;;;6125909;23;20041;-88
2022/01/28 06:20:02;;;;;;;17.98;2.45;;;3.40;99.90;;;;;;6127710;23;20017;-88
2022/01/28 06:22:28;;;;;;;16.50;2.92;;;3.40;99.90;;;;;;6128748;23;20090;-87
2022/01/28 06:24:53;;;;;;;22.35;2.67;;;3.30;99.90;;;;;;6129102;23;20096;-87
2022/01/28 06:27:19;;;;;;;22.73;2.33;;;3.30;99.90;;;;;;6128668;23;20013;-87
2022/01/28 06:29:44;;;;;;;14.18;2.53;;;3.30;99.90;;;;;;6126377;23;20017;-87
2022/01/28 06:32:11;;;;;;;14.60;1.92;;;3.40;99.90;;;;;;6127960;23;20017;-88
2022/01/28 06:34:38;;;;;;;12.65;1.75;;;3.40;99.90;;;;;;6129878;23;20020;-88
2022/01/28 06:37:04;;;;;;;13.85;2.25;;;3.40;99.90;;;;;;6100531;23;20068;-88
2022/01/28 06:39:32;;;;;;;14.40;2.70;;;3.20;99.90;;;;;;6126752;23;20024;-88
2022/01/28 06:41:58;;;;;;;14.82;3.28;;;3.30;99.90;;;;;;6133913;23;20013;-88
2022/01/28 06:44:25;;;;;;;16.17;2.08;;;3.20;99.90;;;;;;6129771;23;20327;-88
2022/01/28 06:46:51;;;;;;;11.45;2.30;;;3.20;99.90;;;;;;6128095;23;20358;-88
2022/01/28 06:49:20;;;;;;;17.80;3.08;;;3.30;99.90;;;;;;6129198;23;20041;-88
2022/01/28 06:51:45;;;;;;;9.90;1.92;;;3.20;99.90;;;;;;6129447;23;20024;-88
2022/01/28 06:54:11;;;;;;;13.55;2.17;;;3.10;99.90;;;;;;6123825;23;20009;-88
2022/01/28 06:56:36;;;;;;;24.02;3.53;;;3.10;99.90;;;;;;6115452;23;20100;-88
2022/01/28 06:59:04;;;;;;;18.15;3.00;;;3.10;99.90;;;;;;6129616;23;20337;-88
2022/01/28 07:01:30;;;;;;;21.55;3.55;;;3.20;99.90;;;;;;6122693;23;20127;-88
2022/01/28 07:03:56;;;;;;;21.92;4.18;;;3.20;99.90;;;;;;6131273;23;20049;-88
2022/01/28 07:06:23;;;;;;;17.15;2.78;;;3.10;99.90;;;;;;6126911;23;20017;-88
2022/01/28 07:08:49;;;;;;;14.88;2.78;;;3.20;99.90;;;;;;6131706;23;20101;-88
2022/01/28 07:11:14;;;;;;;12.27;2.42;;;3.10;99.90;;;;;;6128987;23;20017;-88
2022/01/28 07:13:49;;;;;;;22.40;3.30;;;3.10;99.90;;;;;;6130960;23;20005;-88
2022/01/28 07:16:15;;;;;;;14.70;3.30;;;3.10;99.90;;;;;;6126818;23;20070;-88
2022/01/28 07:18:54;;;;;;;22.23;4.00;;;3.00;99.90;;;;;;6130483;23;20437;-88
2022/01/28 07:21:19;;;;;;;19.55;3.33;;;2.90;99.90;;;;;;6128998;23;20013;-87
2022/01/28 07:23:51;;;;;;;11.30;3.28;;;3.00;99.90;;;;;;6153074;23;20032;-88
2022/01/28 07:26:16;;;;;;;20.42;3.65;;;2.90;99.90;;;;;;6130259;23;20374;-88
2022/01/28 07:28:49;;;;;;;21.55;3.65;;;2.90;99.90;;;;;;6134162;23;20401;-88
2022/01/28 07:31:22;;;;;;;23.50;3.83;;;2.80;99.90;;;;;;6152871;23;20096;-88
2022/01/28 07:33:47;;;;;;;20.17;3.08;;;3.00;99.90;;;;;;6131060;23;20092;-88
2022/01/28 07:36:49;;;;;;;19.00;3.72;;;2.80;99.90;;;;;;6125977;23;20036;-88
2022/01/28 07:39:18;;;;;;;14.38;2.63;;;2.90;99.90;;;;;;6155310;23;20023;-88
2022/01/28 07:41:43;;;;;;;22.42;4.65;;;2.80;99.90;;;;;;6131881;23;20068;-88
2022/01/28 07:44:09;;;;;;;22.02;3.10;;;2.80;99.90;;;;;;6131009;23;20005;-88
2022/01/28 07:46:35;;;;;;;16.73;2.40;;;2.70;99.90;;;;;;6130128;23;20005;-89
2022/01/28 07:49:01;;;;;;;15.32;3.30;;;2.70;99.90;;;;;;6131138;23;20013;-88
2022/01/28 07:51:26;;;;;;;23.13;3.53;;;2.60;99.90;;;;;;6128305;23;20001;-88
2022/01/28 07:53:52;;;;;;;22.85;4.25;;;2.70;99.90;;;;;;6125553;23;20311;-89
2022/01/28 07:56:17;;;;;;;12.32;2.72;;;2.70;99.90;;;;;;6130523;23;20001;-88
2022/01/28 07:58:43;;;;;;;17.08;2.90;;;2.70;99.90;;;;;;6129747;23;20036;-88
2022/01/28 08:01:09;;;;;;;16.45;3.65;;;2.70;99.90;;;;;;6131994;23;20414;-89
2022/01/28 08:03:35;;;;;;;12.80;2.90;;;2.70;99.90;;;;;;6129413;23;20019;-89
2022/01/28 08:06:08;;;;;;;11.60;2.45;;;2.80;99.90;;;;;;6130713;23;20023;-89
2022/01/28 08:08:34;;;;;;;19.05;3.55;;;2.60;99.90;;;;;;6108617;23;20009;-89
2022/01/28 08:11:00;;;;;;;20.63;3.75;;;2.60;99.90;;;;;;6127585;23;20485;-89
2022/01/28 08:13:47;;;;;;;15.88;3.40;;;2.70;99.90;;;;;;6131384;23;20342;-89
2022/01/28 08:16:12;;;;;;;10.15;2.90;;;2.70;99.90;;;;;;6130953;23;20080;-89
2022/01/28 08:18:38;;;;;;;24.15;4.82;;;2.80;99.90;;;;;;6130521;23;20020;-89
2022/01/28 08:21:04;;;;;;;11.07;2.03;;;2.70;99.90;;;;;;6126849;23;20005;-89
2022/01/28 08:23:29;;;;;;;21.90;4.38;;;2.80;99.90;;;;;;6152047;23;20012;-89
2022/01/28 08:25:55;;;;;;;13.48;2.50;;;2.80;99.90;;;;;;6126551;23;20001;-89
2022/01/28 08:28:21;;;;;;;19.08;4.10;;;2.90;99.90;;;;;;6124892;23;20219;-90
2022/01/28 08:30:47;;;;;;;21.55;4.22;;;2.90;99.90;;;;;;6121841;23;20021;-90
2022/01/28 08:33:12;;;;;;;16.73;3.20;;;3.00;99.90;;;;;;6125455;23;20013;-90
2022/01/28 08:35:39;;;;;;;15.30;4.03;;;3.10;99.90;;;;;;6124879;23;20013;-90
2022/01/28 08:38:13;;;;;;;30.75;6.93;;;3.00;99.90;;;;;;6124266;23;20009;-90
2022/01/28 08:40:40;;;;;;;18.58;3.63;;;3.10;99.90;;;;;;6126615;23;20404;-90
2022/01/28 08:43:05;;;;;;;20.27;4.10;;;3.20;99.90;;;;;;6122658;23;20500;-89
2022/01/28 08:45:31;;;;;;;13.25;3.13;;;3.30;99.90;;;;;;6129193;23;20454;-89
2022/01/28 08:47:57;;;;;;;29.30;6.07;;;3.30;99.90;;;;;;6128445;23;20013;-90
2022/01/28 08:50:22;;;;;;;16.15;4.28;;;3.40;99.90;;;;;;6123662;23;20013;-89
2022/01/28 08:52:48;;;;;;;27.00;4.75;;;3.40;99.90;;;;;;6127591;23;20056;-90
2022/01/28 08:55:19;;;;;;;20.45;4.38;;;3.60;99.90;;;;;;6126397;23;20484;-90
2022/01/28 08:57:48;;;;;;;13.27;3.05;;;3.60;99.90;;;;;;6063465;23;20020;-90
2022/01/28 09:00:17;;;;;;;23.52;4.78;;;3.70;99.90;;;;;;6089404;23;20029;-90
2022/01/28 09:02:43;;;;;;;16.73;3.92;;;3.80;99.90;;;;;;6079075;23;20013;-90
2022/01/28 09:05:38;;;;;;;26.88;5.47;;;3.50;99.90;;;;;;6075651;23;20296;-90
2022/01/28 09:08:09;;;;;;;13.88;3.60;;;3.70;99.90;;;;;;6093223;23;20009;-90
2022/01/28 09:10:41;;;;;;;20.13;5.70;;;3.80;99.90;;;;;;6093024;23;20033;-90
2022/01/28 09:15:40;;;;;;;19.90;4.45;;;3.80;99.90;;;;;;6134684;23;20021;-90
2022/01/28 09:18:14;;;;;;;21.92;4.38;;;4.00;99.90;;;;;;6088451;23;20013;-90
2022/01/28 09:20:47;;;;;;;10.57;3.75;;;3.90;99.90;;;;;;6101820;23;20024;-90
2022/01/28 09:23:18;;;;;;;30.30;5.40;;;4.10;99.90;;;;;;6086484;23;20084;-90
2022/01/28 09:25:48;;;;;;;16.60;3.47;;;4.10;99.90;;;;;;6076948;23;20013;-90
2022/01/28 09:28:23;;;;;;;20.48;4.47;;;4.20;99.90;;;;;;6055623;23;20334;-90
2022/01/28 09:30:53;;;;;;;20.38;3.15;;;4.10;99.90;;;;;;6128524;23;20021;-91
2022/01/28 09:33:34;;;;;;;17.05;3.15;;;4.00;99.90;;;;;;6096222;23;20156;-90
2022/01/28 09:36:05;;;;;;;27.55;4.95;;;4.10;99.90;;;;;;6102732;23;20013;-90
2022/01/28 09:38:31;;;;;;;28.63;3.55;;;4.50;99.90;;;;;;6101754;23;20012;-90
2022/01/28 09:40:57;;;;;;;11.07;3.53;;;4.40;99.90;;;;;;6097665;23;20457;-90
2022/01/28 09:43:37;;;;;;;29.60;4.13;;;4.40;99.90;;;;;;6122892;23;20342;-89
2022/01/28 09:46:13;;;;;;;27.08;4.30;;;4.60;99.90;;;;;;6126498;23;20009;-90
2022/01/28 09:48:40;;;;;;;20.52;2.88;;;4.60;99.90;;;;;;6115898;23;20446;-91
2022/01/28 09:51:11;;;;;;;23.35;3.17;;;4.50;99.90;;;;;;6098253;23;20037;-90
2022/01/28 09:53:48;;;;;;;19.40;3.33;;;4.60;99.90;;;;;;6091100;23;20037;-89
2022/01/28 09:56:18;;;;;;;27.73;2.58;;;4.50;99.90;;;;;;6110084;23;20025;-90
2022/01/28 09:58:49;;;;;;;18.33;2.47;;;4.80;99.90;;;;;;6127360;23;20342;-90
2022/01/28 10:01:18;;;;;;;14.05;2.72;;;4.80;99.90;;;;;;6129782;23;20083;-90
2022/01/28 10:04:13;;;;;;;20.05;3.33;;;4.70;99.90;;;;;;6122800;23;20533;-90
2022/01/28 10:06:40;;;;;;;21.80;3.45;;;4.70;99.90;;;;;;6110797;23;20016;-90
2022/01/28 10:09:07;;;;;;;20.27;3.25;;;4.60;99.90;;;;;;6097929;23;20012;-90
2022/01/28 10:11:38;;;;;;;25.52;3.38;;;4.50;99.90;;;;;;6125777;23;20009;-90
2022/01/28 10:14:51;;;;;;;15.45;2.40;;;4.50;99.90;;;;;;6128729;23;20092;-90
2022/01/28 10:17:21;;;;;;;16.92;1.92;;;4.90;99.90;;;;;;6108400;23;20005;-90
2022/01/28 10:19:55;;;;;;;15.63;2.70;;;4.90;99.90;;;;;;6085343;23;20052;-90
2022/01/28 10:22:23;;;;;;;12.40;1.98;;;5.00;99.90;;;;;;6111788;23;20043;-90
2022/01/28 10:24:55;;;;;;;21.08;2.92;;;5.00;99.90;;;;;;6089648;23;20055;-91
2022/01/28 10:27:23;;;;;;;22.20;3.85;;;5.10;99.90;;;;;;6093853;23;20469;-90
2022/01/28 10:29:57;;;;;;;20.95;3.40;;;5.60;99.90;;;;;;6126705;23;20338;-90
2022/01/28 10:32:27;;;;;;;18.02;3.03;;;5.30;99.90;;;;;;6068053;23;20012;-90
2022/01/28 10:34:55;;;;;;;10.20;1.85;;;5.30;99.90;;;;;;6110790;23;20462;-90
2022/01/28 10:37:39;;;;;;;12.30;2.42;;;5.40;99.90;;;;;;6081460;23;20015;-90
2022/01/28 10:40:10;;;;;;;23.05;3.60;;;5.60;99.90;;;;;;6075791;23;20035;-90
2022/01/28 10:42:38;;;;;;;16.80;3.33;;;5.70;99.90;;;;;;6042837;23;20013;-90
2022/01/28 10:45:13;;;;;;;32.13;3.95;;;5.90;99.90;;;;;;6093315;23;20110;-90
2022/01/28 10:47:45;;;;;;;19.33;3.13;;;6.10;99.90;;;;;;6124287;23;20659;-90
2022/01/28 10:50:18;;;;;;;22.38;2.65;;;6.00;99.90;;;;;;6115051;23;20048;-91
2022/01/28 10:52:44;;;;;;;22.33;2.75;;;6.00;99.90;;;;;;6126211;23;20365;-90
2022/01/28 10:55:17;;;;;;;19.55;2.85;;;6.30;99.90;;;;;;6123047;23;20016;-90
2022/01/28 10:57:54;;;;;;;13.02;3.03;;;6.40;99.90;;;;;;6101269;23;20354;-90
2022/01/28 11:00:19;;;;;;;23.33;2.92;;;6.60;99.90;;;;;;6125859;23;20437;-90
2022/01/28 11:02:45;;;;;;;17.58;3.03;;;6.40;99.90;;;;;;6128315;23;20024;-90
2022/01/28 11:05:10;;;;;;;8.98;1.80;;;6.60;99.90;;;;;;6127547;23;20472;-91
2022/01/28 11:07:36;;;;;;;17.83;4.28;;;6.90;99.90;;;;;;6094879;23;20521;-90
2022/01/28 11:10:02;;;;;;;24.50;2.90;;;6.80;99.90;;;;;;6094301;23;20075;-90
2022/01/28 11:12:28;;;;;;;26.52;4.63;;;6.90;99.90;;;;;;6127375;23;20040;-90
2022/01/28 11:14:55;;;;;;;18.70;3.00;;;6.60;99.90;;;;;;6097507;23;20017;-90
2022/01/28 11:17:32;;;;;;;13.73;2.95;;;6.90;99.90;;;;;;6125070;23;20020;-90
2022/01/28 11:19:58;;;;;;;24.85;3.40;;;6.50;99.90;;;;;;6133338;23;20069;-89
2022/01/28 11:26:35;;;;;;;21.88;2.78;;;6.90;99.90;;;;;;6159940;23;20531;-88
2022/01/28 11:29:24;;;;;;;18.25;2.28;;;7.00;99.90;;;;;;6150706;23;20013;-89
2022/01/28 11:32:23;;;;;;;15.13;2.78;;;7.20;99.90;;;;;;6157133;23;20036;-89
2022/01/28 11:34:59;;;;;;;14.98;2.63;;;7.10;99.90;;;;;;6137262;23;20009;-89
2022/01/28 11:37:28;;;;;;;;;;;7.20;99.90;;;;;;6126511;23;20009;-90
2022/01/28 11:39:55;;;;;;;12.90;1.80;;;7.20;99.90;;;;;;6128001;23;19908;-90
2022/01/28 11:42:27;;;;;;;17.65;3.05;;;7.40;99.90;;;;;;6119473;23;20013;-89
2022/01/28 11:45:00;;;;;;;25.20;3.10;;;7.40;99.90;;;;;;6113414;23;20149;-89
2022/01/28 11:47:30;;;;;;;13.77;3.03;;;7.50;99.90;;;;;;6126508;23;20052;-89
2022/01/28 11:50:08;;;;;;;25.85;3.92;;;7.50;99.90;;;;;;6126688;23;20020;-90
2022/01/28 11:52:41;;;;;;;24.50;4.97;;;7.50;99.90;;;;;;6135413;23;20093;-89
2022/01/28 11:55:23;;;;;;;14.65;2.42;;;7.50;99.90;;;;;;6125721;23;20013;-89
2022/01/28 11:58:38;;;;;;;24.27;2.95;;;7.40;99.90;;;;;;6150342;23;20473;-89
2022/01/28 12:01:04;;;;;;;20.02;3.17;;;7.30;99.90;;;;;;6111725;23;20013;-89
2022/01/28 12:03:36;;;;;;;15.18;2.45;;;7.40;99.90;;;;;;6122937;23;20702;-90
2022/01/28 12:06:08;;;;;;;17.15;2.80;;;7.40;99.90;;;;;;6109602;23;20017;-90
2022/01/28 12:08:34;;;;;;;22.38;2.78;;;7.30;99.90;;;;;;6119736;23;20046;-90
2022/01/28 12:11:02;;;;;;;13.90;2.47;;;7.40;99.90;;;;;;6122128;23;20021;-90
2022/01/28 12:13:52;;;;;;;14.77;1.92;;;7.30;99.90;;;;;;6096462;23;20025;-89
2022/01/28 12:16:29;;;;;;;16.52;3.05;;;7.40;99.90;;;;;;6061714;23;20420;-90
2022/01/28 12:18:56;;;;;;;12.90;2.38;;;7.50;99.90;;;;;;6111477;23;20016;-89
2022/01/28 12:21:29;;;;;;;18.58;3.60;;;7.50;99.90;;;;;;6119819;23;20016;-89
2022/01/28 12:24:14;;;;;;;21.20;3.78;;;7.40;99.90;;;;;;6124336;23;20118;-90
2022/01/28 12:27:02;;;;;;;21.95;2.90;;;7.50;99.90;;;;;;6128265;23;20008;-90
2022/01/28 12:29:47;;;;;;;11.73;2.17;;;7.50;99.90;;;;;;6099688;23;20017;-90
2022/01/28 12:32:13;;;;;;;22.52;3.28;;;7.60;99.90;;;;;;6148854;23;20438;-90
2022/01/28 12:34:45;;;;;;;14.70;2.47;;;7.60;99.90;;;;;;6125339;23;20020;-88
2022/01/28 12:37:10;;;;;;;17.70;2.67;;;7.60;99.90;;;;;;6123567;23;20456;-90
2022/01/28 12:39:42;;;;;;;10.30;1.95;;;7.90;99.90;;;;;;6110985;23;20021;-90
2022/01/28 12:42:22;;;;;;;8.88;1.80;;;8.20;99.90;;;;;;6123655;23;20020;-90
2022/01/28 12:44:53;;;;;;;8.88;2.03;;;8.40;99.90;;;;;;6100950;23;20017;-90
2022/01/28 12:47:19;;;;;;;22.88;2.47;;;8.40;99.90;;;;;;6091611;23;20361;-90
2022/01/28 12:49:46;;;;;;;13.63;2.00;;;8.40;99.90;;;;;;6099713;23;20013;-90
2022/01/28 12:52:12;;;;;;;18.33;2.72;;;8.80;99.90;;;;;;6090497;23;20068;-90
2022/01/28 12:54:45;;;;;;;14.65;2.80;;;8.90;99.90;;;;;;6124527;23;20040;-90
2022/01/28 12:57:11;;;;;;;18.08;2.65;;;8.80;99.90;;;;;;6126318;23;20013;-89
2022/01/28 12:59:38;;;;;;;14.25;4.47;;;8.80;99.90;;;;;;6089723;23;21591;-89
2022/01/28 13:02:07;;;;;;;9.88;3.15;;;8.80;99.90;;;;;;6123878;23;20059;-89
2022/01/28 13:09:55;;;;;;;14.98;3.30;;;9.00;99.90;;;;;;6147200;23;20013;-90
2022/01/28 13:12:23;;;;;;;18.90;3.50;;;9.50;99.90;;;;;;6124646;23;20493;-90
2022/01/28 13:14:48;;;;;;;11.27;2.22;;;9.80;99.90;;;;;;6086143;23;20020;-88
2022/01/28 13:17:54;;;;;;;17.70;2.95;;;10.00;99.90;;;;;;6124758;23;20080;-88
2022/01/28 13:20:20;;;;;;;13.82;3.25;;;10.20;99.90;;;;;;6117334;23;20076;-89
2022/01/28 13:22:49;;;;;;;13.95;3.35;;;9.90;99.90;;;;;;6125577;23;20017;-88
2022/01/28 13:25:25;;;;;;;12.77;2.67;;;9.60;99.90;;;;;;6102839;23;20013;-88
2022/01/28 13:27:57;;;;;;;17.15;2.90;;;9.30;99.90;;;;;;6088588;23;20514;-88
2022/01/28 13:30:23;;;;;;;13.35;3.05;;;9.40;99.90;;;;;;6128105;23;20032;-88
2022/01/28 13:32:50;;;;;;;14.85;4.00;;;9.40;99.90;;;;;;6112211;23;20009;-89
2022/01/28 13:35:17;;;;;;;22.05;4.07;;;9.40;99.90;;;;;;6102228;23;20323;-88
2022/01/28 13:37:53;;;;;;;24.70;4.75;;;9.60;99.90;;;;;;6125205;23;20017;-89
2022/01/28 13:40:19;;;;;;;;;;;9.30;99.90;;;;;;6121457;23;20028;-89
2022/01/28 13:43:18;;;;;;;18.30;4.57;;;9.20;99.90;;;;;;6152799;23;19908;-88
2022/01/28 13:45:49;;;;;;;16.52;4.10;;;9.40;99.90;;;;;;6151154;23;20092;-89
2022/01/28 13:48:20;;;;;;;17.00;4.50;;;9.20;99.90;;;;;;6126268;23;20016;-88
2022/01/28 13:50:52;;;;;;;11.98;2.10;;;9.10;99.90;;;;;;6113226;23;20560;-88
2022/01/28 13:55:50;;;;;;;17.67;3.85;;;9.50;99.90;;;;;;6114855;23;20042;-89
2022/01/28 13:58:16;;;;;;;13.60;3.17;;;9.50;99.90;;;;;;6114842;23;20145;-88
2022/01/28 14:00:45;;;;;;;22.55;3.45;;;9.30;99.90;;;;;;6149040;23;20089;-89
2022/01/28 14:03:26;;;;;;;13.10;3.13;;;9.40;99.90;;;;;;6125301;23;20005;-89
2022/01/28 14:05:59;;;;;;;12.25;3.67;;;9.40;99.90;;;;;;6124435;23;20009;-89
2022/01/28 14:08:51;;;;;;;19.52;4.90;;;9.20;99.90;;;;;;6126024;23;20028;-89
2022/01/28 14:11:48;;;;;;;16.30;3.45;;;8.90;99.90;;;;;;6126645;23;20006;-88
2022/01/28 14:17:28;;;;;;;11.63;3.40;;;9.10;99.90;;;;;;6112629;23;19955;-89
2022/01/28 14:20:38;;;;;;;9.38;2.63;;;9.50;99.90;;;;;;6104111;23;20074;-88
2022/01/28 14:23:20;;;;;;;11.98;2.78;;;9.30;99.90;;;;;;6054182;23;20008;-88
2022/01/28 14:25:46;;;;;;;9.20;2.53;;;9.50;99.90;;;;;;6086369;23;20036;-88
2022/01/28 14:30:43;;;;;;;9.77;2.60;;;9.90;99.90;;;;;;6099961;23;20026;-88
2022/01/28 14:33:11;;;;;;;8.25;1.92;;;9.90;99.90;;;;;;6083285;23;20012;-88
2022/01/28 14:35:37;;;;;;;12.23;2.00;;;9.90;99.90;;;;;;6126212;23;20017;-89